sensor_id;sensor_type;location;lat;lon;timestamp;pressure;altitude;pressure_sealevel;temperature;humidity
77889;BME280;67082;41.704;44.768;2023-04-24T00:02:13;95443.84;;;15.89;71.68
77889;BME280;67082;41.704;44.768;2023-04-24T00:04:42;95443.13;;;15.94;72.22
77889;BME280;67082;41.704;44.768;2023-04-24T00:07:12;95451.72;;;15.90;72.24
77889;BME280;67082;41.704;44.768;2023-04-24T00:09:40;95444.38;;;15.93;72.86
77889;BME280;67082;41.704;44.768;2023-04-24T00:12:10;95445.44;;;15.95;72.55
77889;BME280;67082;41.704;44.768;2023-04-24T00:14:38;95444.66;;;15.95;73.55
77889;BME280;67082;41.704;44.768;2023-04-24T00:17:07;95446.09;;;15.85;73.39
77889;BME280;67082;41.704;44.768;2023-04-24T00:19:34;95452.38;;;15.80;73.75
77889;BME280;67082;41.704;44.768;2023-04-24T00:22:03;95453.91;;;15.81;74.50
77889;BME280;67082;41.704;44.768;2023-04-24T00:24:32;95455.66;;;15.78;74.92
77889;BME280;67082;41.704;44.768;2023-04-24T00:27:00;95458.72;;;15.80;73.88
77889;BME280;67082;41.704;44.768;2023-04-24T00:29:28;95456.59;;;15.70;74.67
77889;BME280;67082;41.704;44.768;2023-04-24T00:31:57;95451.47;;;15.68;74.51
77889;BME280;67082;41.704;44.768;2023-04-24T00:34:25;95460.25;;;15.56;75.74
77889;BME280;67082;41.704;44.768;2023-04-24T00:36:54;95473.47;;;15.61;76.27
77889;BME280;67082;41.704;44.768;2023-04-24T00:39:22;95476.28;;;15.61;76.37
77889;BME280;67082;41.704;44.768;2023-04-24T00:41:52;95476.22;;;15.55;76.39
77889;BME280;67082;41.704;44.768;2023-04-24T00:44:20;95476.63;;;15.48;76.90
77889;BME280;67082;41.704;44.768;2023-04-24T00:46:49;95465.47;;;15.48;76.59
77889;BME280;67082;41.704;44.768;2023-04-24T00:49:20;95474.53;;;15.43;76.68
77889;BME280;67082;41.704;44.768;2023-04-24T00:51:52;95473.84;;;15.48;76.55
77889;BME280;67082;41.704;44.768;2023-04-24T00:54:20;95458.53;;;15.24;76.89
77889;BME280;67082;41.704;44.768;2023-04-24T00:56:48;95453.91;;;15.21;76.58
77889;BME280;67082;41.704;44.768;2023-04-24T00:59:17;95451.88;;;15.21;76.67
77889;BME280;67082;41.704;44.768;2023-04-24T01:01:46;95445.34;;;15.24;77.39
77889;BME280;67082;41.704;44.768;2023-04-24T01:04:15;95444.63;;;15.29;77.33
77889;BME280;67082;41.704;44.768;2023-04-24T01:06:46;95423.53;;;15.28;77.44
77889;BME280;67082;41.704;44.768;2023-04-24T01:09:15;95435.41;;;15.03;78.78
77889;BME280;67082;41.704;44.768;2023-04-24T01:11:44;95442.09;;;15.11;78.01
77889;BME280;67082;41.704;44.768;2023-04-24T01:14:12;95438.34;;;15.14;77.64
77889;BME280;67082;41.704;44.768;2023-04-24T01:16:41;95449.78;;;15.16;77.98
77889;BME280;67082;41.704;44.768;2023-04-24T01:19:10;95447.00;;;15.16;77.22
77889;BME280;67082;41.704;44.768;2023-04-24T01:21:41;95455.78;;;15.09;78.67
77889;BME280;67082;41.704;44.768;2023-04-24T01:24:10;95458.16;;;14.96;79.13
77889;BME280;67082;41.704;44.768;2023-04-24T01:26:39;95452.16;;;15.03;79.07
77889;BME280;67082;41.704;44.768;2023-04-24T01:29:07;95447.25;;;14.98;78.84
77889;BME280;67082;41.704;44.768;2023-04-24T01:31:36;95455.75;;;14.89;79.42
77889;BME280;67082;41.704;44.768;2023-04-24T01:34:04;95450.28;;;14.80;79.97
77889;BME280;67082;41.704;44.768;2023-04-24T01:36:34;95449.72;;;14.76;80.02
77889;BME280;67082;41.704;44.768;2023-04-24T01:39:02;95450.69;;;14.73;80.01
77889;BME280;67082;41.704;44.768;2023-04-24T01:41:32;95452.44;;;14.71;79.77
77889;BME280;67082;41.704;44.768;2023-04-24T01:44:00;95447.13;;;14.73;79.30
77889;BME280;67082;41.704;44.768;2023-04-24T01:46:29;95447.97;;;14.79;79.25
77889;BME280;67082;41.704;44.768;2023-04-24T01:49:00;95445.91;;;14.59;79.23
77889;BME280;67082;41.704;44.768;2023-04-24T01:51:28;95442.84;;;14.57;79.02
77889;BME280;67082;41.704;44.768;2023-04-24T01:53:56;95451.84;;;14.67;78.06
77889;BME280;67082;41.704;44.768;2023-04-24T01:56:25;95444.94;;;14.62;78.57
77889;BME280;67082;41.704;44.768;2023-04-24T01:58:57;95450.28;;;14.80;77.56
77889;BME280;67082;41.704;44.768;2023-04-24T02:01:26;95444.31;;;14.87;78.04
77889;BME280;67082;41.704;44.768;2023-04-24T02:03:54;95446.19;;;14.96;78.39
77889;BME280;67082;41.704;44.768;2023-04-24T02:06:22;95437.00;;;14.90;78.85
77889;BME280;67082;41.704;44.768;2023-04-24T02:08:53;95447.94;;;14.93;78.36
77889;BME280;67082;41.704;44.768;2023-04-24T02:11:22;95458.22;;;15.02;77.89
77889;BME280;67082;41.704;44.768;2023-04-24T02:13:53;95458.50;;;15.04;77.33
77889;BME280;67082;41.704;44.768;2023-04-24T02:16:21;95463.09;;;15.07;77.59
77889;BME280;67082;41.704;44.768;2023-04-24T02:18:50;95452.94;;;15.04;77.94
77889;BME280;67082;41.704;44.768;2023-04-24T02:21:18;95455.22;;;15.05;77.43
77889;BME280;67082;41.704;44.768;2023-04-24T02:23:46;95454.81;;;15.12;77.40
77889;BME280;67082;41.704;44.768;2023-04-24T02:26:14;95456.56;;;15.10;77.44
77889;BME280;67082;41.704;44.768;2023-04-24T02:28:44;95460.53;;;15.03;77.77
77889;BME280;67082;41.704;44.768;2023-04-24T02:31:12;95458.69;;;15.00;77.98
77889;BME280;67082;41.704;44.768;2023-04-24T02:33:40;95468.31;;;14.99;78.12
77889;BME280;67082;41.704;44.768;2023-04-24T02:36:09;95485.63;;;15.03;77.88
77889;BME280;67082;41.704;44.768;2023-04-24T02:38:36;95479.47;;;14.99;77.78
77889;BME280;67082;41.704;44.768;2023-04-24T02:41:05;95493.53;;;15.05;77.94
77889;BME280;67082;41.704;44.768;2023-04-24T02:43:34;95495.53;;;15.04;77.29
77889;BME280;67082;41.704;44.768;2023-04-24T02:46:02;95505.44;;;15.05;77.42
77889;BME280;67082;41.704;44.768;2023-04-24T02:48:30;95522.56;;;15.13;77.50
77889;BME280;67082;41.704;44.768;2023-04-24T02:50:58;95519.31;;;15.00;78.22
77889;BME280;67082;41.704;44.768;2023-04-24T02:53:26;95513.53;;;15.03;78.40
77889;BME280;67082;41.704;44.768;2023-04-24T02:55:55;95525.81;;;15.11;78.77
77889;BME280;67082;41.704;44.768;2023-04-24T02:58:23;95531.41;;;15.11;78.93
77889;BME280;67082;41.704;44.768;2023-04-24T03:00:54;95542.88;;;15.13;79.48
77889;BME280;67082;41.704;44.768;2023-04-24T03:03:25;95552.97;;;15.11;79.30
77889;BME280;67082;41.704;44.768;2023-04-24T03:05:54;95571.84;;;15.16;78.55
77889;BME280;67082;41.704;44.768;2023-04-24T03:08:23;95574.63;;;15.16;78.93
77889;BME280;67082;41.704;44.768;2023-04-24T03:10:51;95584.72;;;15.13;79.23
77889;BME280;67082;41.704;44.768;2023-04-24T03:13:23;95589.47;;;15.07;79.15
77889;BME280;67082;41.704;44.768;2023-04-24T03:15:51;95577.44;;;15.01;79.74
77889;BME280;67082;41.704;44.768;2023-04-24T03:18:20;95561.88;;;14.80;80.11
77889;BME280;67082;41.704;44.768;2023-04-24T03:20:52;95570.50;;;14.82;80.25
77889;BME280;67082;41.704;44.768;2023-04-24T03:23:20;95564.84;;;14.91;81.30
77889;BME280;67082;41.704;44.768;2023-04-24T03:25:48;95570.16;;;14.89;81.15
77889;BME280;67082;41.704;44.768;2023-04-24T03:28:19;95568.41;;;14.77;80.58
77889;BME280;67082;41.704;44.768;2023-04-24T03:30:57;95566.47;;;14.83;81.06
77889;BME280;67082;41.704;44.768;2023-04-24T03:33:28;95565.13;;;14.93;81.49
77889;BME280;67082;41.704;44.768;2023-04-24T03:36:05;95565.22;;;14.99;80.74
77889;BME280;67082;41.704;44.768;2023-04-24T03:38:38;95560.69;;;15.01;80.49
77889;BME280;67082;41.704;44.768;2023-04-24T03:41:23;95567.22;;;14.98;80.48
77889;BME280;67082;41.704;44.768;2023-04-24T03:44:20;95560.69;;;15.01;81.24
77889;BME280;67082;41.704;44.768;2023-04-24T03:46:48;95570.28;;;15.00;81.11
77889;BME280;67082;41.704;44.768;2023-04-24T03:49:18;95555.66;;;15.05;81.11
77889;BME280;67082;41.704;44.768;2023-04-24T03:51:48;95556.06;;;14.98;80.29
77889;BME280;67082;41.704;44.768;2023-04-24T03:54:23;95549.44;;;14.96;80.39
77889;BME280;67082;41.704;44.768;2023-04-24T03:56:52;95539.53;;;14.95;80.33
77889;BME280;67082;41.704;44.768;2023-04-24T03:59:25;95540.47;;;14.92;80.48
77889;BME280;67082;41.704;44.768;2023-04-24T04:02:20;95549.34;;;14.90;80.95
77889;BME280;67082;41.704;44.768;2023-04-24T04:04:49;95541.09;;;14.81;80.54
77889;BME280;67082;41.704;44.768;2023-04-24T04:07:17;95523.41;;;14.84;80.43
77889;BME280;67082;41.704;44.768;2023-04-24T04:09:45;95520.59;;;14.84;80.69
77889;BME280;67082;41.704;44.768;2023-04-24T04:12:13;95499.00;;;14.50;81.33
77889;BME280;67082;41.704;44.768;2023-04-24T04:14:42;95472.66;;;14.51;82.20
77889;BME280;67082;41.704;44.768;2023-04-24T04:17:10;95464.56;;;14.53;81.85
77889;BME280;67082;41.704;44.768;2023-04-24T04:19:38;95479.19;;;14.48;82.29
77889;BME280;67082;41.704;44.768;2023-04-24T04:22:08;95487.66;;;14.54;82.57
77889;BME280;67082;41.704;44.768;2023-04-24T04:24:43;95489.38;;;14.51;82.25
77889;BME280;67082;41.704;44.768;2023-04-24T04:27:13;95501.19;;;14.61;81.62
77889;BME280;67082;41.704;44.768;2023-04-24T04:30:04;95508.41;;;14.82;80.54
77889;BME280;67082;41.704;44.768;2023-04-24T04:32:41;95506.06;;;14.95;79.99
77889;BME280;67082;41.704;44.768;2023-04-24T04:35:10;95507.75;;;15.07;79.41
77889;BME280;67082;41.704;44.768;2023-04-24T04:37:38;95511.38;;;15.13;78.77
77889;BME280;67082;41.704;44.768;2023-04-24T04:40:27;95512.72;;;15.17;78.21
77889;BME280;67082;41.704;44.768;2023-04-24T04:43:01;95513.03;;;15.19;77.47
77889;BME280;67082;41.704;44.768;2023-04-24T04:45:37;95508.28;;;15.25;76.24
77889;BME280;67082;41.704;44.768;2023-04-24T04:48:25;95519.44;;;15.25;76.10
77889;BME280;67082;41.704;44.768;2023-04-24T04:50:55;95516.94;;;15.27;75.46
77889;BME280;67082;41.704;44.768;2023-04-24T04:53:24;95512.00;;;15.37;75.80
77889;BME280;67082;41.704;44.768;2023-04-24T04:55:53;95522.44;;;15.56;75.18
77889;BME280;67082;41.704;44.768;2023-04-24T04:58:26;95518.72;;;15.65;74.31
77889;BME280;67082;41.704;44.768;2023-04-24T05:00:58;95517.41;;;15.80;74.13
77889;BME280;67082;41.704;44.768;2023-04-24T05:03:31;95511.66;;;15.89;73.73
77889;BME280;67082;41.704;44.768;2023-04-24T05:06:04;95514.09;;;16.27;73.35
77889;BME280;67082;41.704;44.768;2023-04-24T05:08:39;95513.94;;;16.56;71.76
77889;BME280;67082;41.704;44.768;2023-04-24T05:11:34;95515.13;;;16.75;71.44
77889;BME280;67082;41.704;44.768;2023-04-24T05:14:08;95520.09;;;16.91;71.10
77889;BME280;67082;41.704;44.768;2023-04-24T05:16:38;95522.69;;;17.00;69.58
77889;BME280;67082;41.704;44.768;2023-04-24T05:19:08;95515.63;;;17.10;70.16
77889;BME280;67082;41.704;44.768;2023-04-24T05:21:40;95534.31;;;17.24;68.89
77889;BME280;67082;41.704;44.768;2023-04-24T05:24:10;95523.66;;;17.28;69.14
77889;BME280;67082;41.704;44.768;2023-04-24T05:26:44;95526.25;;;17.37;68.10
77889;BME280;67082;41.704;44.768;2023-04-24T05:29:14;95525.28;;;17.40;67.80
77889;BME280;67082;41.704;44.768;2023-04-24T05:31:45;95525.66;;;17.59;66.70
77889;BME280;67082;41.704;44.768;2023-04-24T05:34:14;95531.72;;;17.52;66.21
77889;BME280;67082;41.704;44.768;2023-04-24T05:36:45;95527.97;;;17.60;65.83
77889;BME280;67082;41.704;44.768;2023-04-24T05:39:14;95534.84;;;17.65;65.75
77889;BME280;67082;41.704;44.768;2023-04-24T05:41:43;95536.09;;;17.58;64.50
77889;BME280;67082;41.704;44.768;2023-04-24T05:44:11;95537.19;;;17.72;65.85
77889;BME280;67082;41.704;44.768;2023-04-24T05:46:39;95542.81;;;17.77;65.45
77889;BME280;67082;41.704;44.768;2023-04-24T05:49:09;95529.56;;;17.78;65.54
77889;BME280;67082;41.704;44.768;2023-04-24T05:51:37;95549.47;;;17.85;64.23
77889;BME280;67082;41.704;44.768;2023-04-24T05:54:07;95545.16;;;17.84;63.02
77889;BME280;67082;41.704;44.768;2023-04-24T05:56:35;95541.81;;;17.80;64.32
77889;BME280;67082;41.704;44.768;2023-04-24T05:59:05;95554.72;;;17.67;63.77
77889;BME280;67082;41.704;44.768;2023-04-24T06:01:34;95548.88;;;17.70;64.44
77889;BME280;67082;41.704;44.768;2023-04-24T06:04:13;95543.13;;;17.90;63.19
77889;BME280;67082;41.704;44.768;2023-04-24T06:06:42;95550.69;;;17.73;63.81
77889;BME280;67082;41.704;44.768;2023-04-24T06:09:11;95545.19;;;17.95;63.44
77889;BME280;67082;41.704;44.768;2023-04-24T06:11:39;95543.53;;;18.25;62.62
77889;BME280;67082;41.704;44.768;2023-04-24T06:14:10;95560.91;;;18.35;61.69
77889;BME280;67082;41.704;44.768;2023-04-24T06:16:41;95548.19;;;18.50;61.05
77889;BME280;67082;41.704;44.768;2023-04-24T06:19:20;95557.13;;;18.60;60.08
77889;BME280;67082;41.704;44.768;2023-04-24T06:21:47;95554.38;;;18.76;60.34
77889;BME280;67082;41.704;44.768;2023-04-24T06:24:16;95553.13;;;18.88;59.57
77889;BME280;67082;41.704;44.768;2023-04-24T06:26:44;95547.00;;;18.90;59.04
77889;BME280;67082;41.704;44.768;2023-04-24T06:29:13;95546.22;;;19.11;57.98
77889;BME280;67082;41.704;44.768;2023-04-24T06:31:41;95545.22;;;19.31;58.50
77889;BME280;67082;41.704;44.768;2023-04-24T06:34:10;95549.81;;;19.28;57.96
77889;BME280;67082;41.704;44.768;2023-04-24T06:36:40;95542.66;;;19.16;59.07
77889;BME280;67082;41.704;44.768;2023-04-24T06:39:08;95544.72;;;19.21;57.34
77889;BME280;67082;41.704;44.768;2023-04-24T06:41:37;95540.63;;;19.39;58.21
77889;BME280;67082;41.704;44.768;2023-04-24T06:44:05;95550.06;;;19.47;57.83
77889;BME280;67082;41.704;44.768;2023-04-24T06:46:33;95548.53;;;19.51;58.19
77889;BME280;67082;41.704;44.768;2023-04-24T06:49:02;95549.81;;;19.50;57.08
77889;BME280;67082;41.704;44.768;2023-04-24T06:51:30;95548.25;;;19.55;56.95
77889;BME280;67082;41.704;44.768;2023-04-24T06:54:00;95542.88;;;19.62;57.25
77889;BME280;67082;41.704;44.768;2023-04-24T06:56:29;95539.81;;;19.49;57.48
77889;BME280;67082;41.704;44.768;2023-04-24T06:58:57;95530.59;;;19.65;57.25
77889;BME280;67082;41.704;44.768;2023-04-24T07:01:25;95536.41;;;19.89;55.87
77889;BME280;67082;41.704;44.768;2023-04-24T07:03:54;95534.16;;;19.77;55.68
77889;BME280;67082;41.704;44.768;2023-04-24T07:06:22;95530.34;;;19.63;55.52
77889;BME280;67082;41.704;44.768;2023-04-24T07:08:51;95531.44;;;19.38;56.71
77889;BME280;67082;41.704;44.768;2023-04-24T07:11:19;95524.25;;;19.48;56.80
77889;BME280;67082;41.704;44.768;2023-04-24T07:13:47;95525.31;;;19.23;57.56
77889;BME280;67082;41.704;44.768;2023-04-24T07:16:15;95516.28;;;19.58;57.41
77889;BME280;67082;41.704;44.768;2023-04-24T07:18:44;95521.13;;;19.79;55.81
77889;BME280;67082;41.704;44.768;2023-04-24T07:21:12;95522.84;;;19.93;55.85
77889;BME280;67082;41.704;44.768;2023-04-24T07:23:40;95536.63;;;20.02;54.67
77889;BME280;67082;41.704;44.768;2023-04-24T07:26:08;95522.84;;;19.99;55.03
77889;BME280;67082;41.704;44.768;2023-04-24T07:28:37;95527.13;;;20.05;55.61
77889;BME280;67082;41.704;44.768;2023-04-24T07:31:05;95520.25;;;20.01;55.74
77889;BME280;67082;41.704;44.768;2023-04-24T07:33:33;95524.13;;;19.87;55.68
77889;BME280;67082;41.704;44.768;2023-04-24T07:36:01;95522.94;;;19.66;55.16
77889;BME280;67082;41.704;44.768;2023-04-24T07:38:30;95521.13;;;19.79;55.44
77889;BME280;67082;41.704;44.768;2023-04-24T07:40:58;95520.75;;;20.05;54.40
77889;BME280;67082;41.704;44.768;2023-04-24T07:43:27;95519.75;;;20.08;54.89
77889;BME280;67082;41.704;44.768;2023-04-24T07:45:54;95519.16;;;20.26;55.88
77889;BME280;67082;41.704;44.768;2023-04-24T07:48:23;95519.72;;;20.13;54.64
77889;BME280;67082;41.704;44.768;2023-04-24T07:50:53;95516.47;;;19.87;55.22
77889;BME280;67082;41.704;44.768;2023-04-24T07:53:22;95508.53;;;19.86;56.76
77889;BME280;67082;41.704;44.768;2023-04-24T07:55:54;95501.94;;;19.78;57.03
77889;BME280;67082;41.704;44.768;2023-04-24T07:58:23;95501.72;;;19.59;57.56
77889;BME280;67082;41.704;44.768;2023-04-24T08:00:51;95504.84;;;19.50;57.03
77889;BME280;67082;41.704;44.768;2023-04-24T08:03:19;95502.03;;;19.45;57.08
77889;BME280;67082;41.704;44.768;2023-04-24T08:05:48;95503.31;;;19.33;57.23
77889;BME280;67082;41.704;44.768;2023-04-24T08:08:21;95491.06;;;19.41;56.80
77889;BME280;67082;41.704;44.768;2023-04-24T08:10:50;95490.53;;;19.37;57.61
77889;BME280;67082;41.704;44.768;2023-04-24T08:13:18;95486.69;;;19.51;56.99
77889;BME280;67082;41.704;44.768;2023-04-24T08:15:46;95482.75;;;19.76;56.78
77889;BME280;67082;41.704;44.768;2023-04-24T08:18:15;95489.59;;;19.92;55.87
77889;BME280;67082;41.704;44.768;2023-04-24T08:20:43;95487.81;;;19.94;54.63
77889;BME280;67082;41.704;44.768;2023-04-24T08:25:59;95466.59;;;19.93;55.02
77889;BME280;67082;41.704;44.768;2023-04-24T08:28:27;95467.59;;;20.01;54.75
77889;BME280;67082;41.704;44.768;2023-04-24T08:30:55;95475.75;;;20.05;54.41
77889;BME280;67082;41.704;44.768;2023-04-24T08:33:23;95460.66;;;20.13;54.73
77889;BME280;67082;41.704;44.768;2023-04-24T08:35:52;95454.69;;;20.28;54.79
77889;BME280;67082;41.704;44.768;2023-04-24T08:38:21;95446.31;;;20.11;54.47
77889;BME280;67082;41.704;44.768;2023-04-24T08:40:49;95442.69;;;20.22;54.46
77889;BME280;67082;41.704;44.768;2023-04-24T08:43:18;95437.53;;;20.26;54.48
77889;BME280;67082;41.704;44.768;2023-04-24T08:45:50;95448.06;;;20.20;54.53
77889;BME280;67082;41.704;44.768;2023-04-24T08:48:18;95437.66;;;20.09;55.09
77889;BME280;67082;41.704;44.768;2023-04-24T08:50:58;95441.22;;;20.04;55.47
77889;BME280;67082;41.704;44.768;2023-04-24T08:53:27;95433.56;;;20.10;54.71
77889;BME280;67082;41.704;44.768;2023-04-24T08:55:55;95429.47;;;20.00;54.71
77889;BME280;67082;41.704;44.768;2023-04-24T08:58:25;95432.06;;;19.98;55.40
77889;BME280;67082;41.704;44.768;2023-04-24T09:00:55;95424.03;;;19.67;55.20
77889;BME280;67082;41.704;44.768;2023-04-24T09:03:24;95428.44;;;19.41;56.67
77889;BME280;67082;41.704;44.768;2023-04-24T09:05:54;95423.59;;;19.41;56.50
77889;BME280;67082;41.704;44.768;2023-04-24T09:08:25;95416.47;;;19.40;57.13
77889;BME280;67082;41.704;44.768;2023-04-24T09:10:54;95407.09;;;19.21;57.25
77889;BME280;67082;41.704;44.768;2023-04-24T09:13:22;95400.66;;;19.26;57.37
77889;BME280;67082;41.704;44.768;2023-04-24T09:15:51;95398.09;;;19.34;57.65
77889;BME280;67082;41.704;44.768;2023-04-24T09:18:19;95401.16;;;19.30;56.73
77889;BME280;67082;41.704;44.768;2023-04-24T09:21:03;95401.16;;;19.19;57.50
77889;BME280;67082;41.704;44.768;2023-04-24T09:23:32;95411.38;;;19.33;57.47
77889;BME280;67082;41.704;44.768;2023-04-24T09:26:01;95409.31;;;19.34;58.67
77889;BME280;67082;41.704;44.768;2023-04-24T09:28:32;95397.53;;;19.46;58.00
77889;BME280;67082;41.704;44.768;2023-04-24T09:31:12;95394.22;;;19.48;57.68
77889;BME280;67082;41.704;44.768;2023-04-24T09:34:00;95403.69;;;19.39;58.21
77889;BME280;67082;41.704;44.768;2023-04-24T09:36:34;95389.69;;;19.28;58.44
77889;BME280;67082;41.704;44.768;2023-04-24T09:39:08;95388.88;;;19.44;58.93
77889;BME280;67082;41.704;44.768;2023-04-24T09:41:55;95386.00;;;19.55;57.15
77889;BME280;67082;41.704;44.768;2023-04-24T09:44:28;95366.25;;;19.72;56.99
77889;BME280;67082;41.704;44.768;2023-04-24T09:46:58;95369.16;;;19.50;57.39
77889;BME280;67082;41.704;44.768;2023-04-24T09:49:29;95365.78;;;19.62;56.91
77889;BME280;67082;41.704;44.768;2023-04-24T09:52:09;95368.03;;;19.69;56.17
77889;BME280;67082;41.704;44.768;2023-04-24T09:54:39;95369.81;;;19.72;56.46
77889;BME280;67082;41.704;44.768;2023-04-24T09:57:08;95378.00;;;19.70;56.29
77889;BME280;67082;41.704;44.768;2023-04-24T09:59:42;95375.06;;;19.92;56.27
77889;BME280;67082;41.704;44.768;2023-04-24T10:02:19;95368.88;;;19.99;56.88
77889;BME280;67082;41.704;44.768;2023-04-24T10:04:55;95365.34;;;19.93;55.96
77889;BME280;67082;41.704;44.768;2023-04-24T10:07:32;95366.63;;;19.92;56.22
77889;BME280;67082;41.704;44.768;2023-04-24T10:10:01;95363.03;;;19.92;56.06
77889;BME280;67082;41.704;44.768;2023-04-24T10:12:30;95362.31;;;19.91;56.03
77889;BME280;67082;41.704;44.768;2023-04-24T10:15:01;95357.69;;;19.94;55.65
77889;BME280;67082;41.704;44.768;2023-04-24T10:17:32;95340.16;;;19.71;56.88
77889;BME280;67082;41.704;44.768;2023-04-24T10:20:00;95347.25;;;19.83;57.38
77889;BME280;67082;41.704;44.768;2023-04-24T10:22:30;95351.50;;;19.95;56.82
77889;BME280;67082;41.704;44.768;2023-04-24T10:24:59;95358.13;;;20.03;56.85
77889;BME280;67082;41.704;44.768;2023-04-24T10:27:31;95355.66;;;19.89;56.41
77889;BME280;67082;41.704;44.768;2023-04-24T10:30:01;95353.44;;;19.76;56.78
77889;BME280;67082;41.704;44.768;2023-04-24T10:32:31;95361.69;;;19.63;56.73
77889;BME280;67082;41.704;44.768;2023-04-24T10:34:59;95359.66;;;19.58;57.53
77889;BME280;67082;41.704;44.768;2023-04-24T10:37:28;95351.00;;;19.56;56.97
77889;BME280;67082;41.704;44.768;2023-04-24T10:39:56;95351.97;;;19.64;56.62
77889;BME280;67082;41.704;44.768;2023-04-24T10:42:27;95346.34;;;19.64;56.65
77889;BME280;67082;41.704;44.768;2023-04-24T10:44:56;95347.66;;;19.58;56.76
77889;BME280;67082;41.704;44.768;2023-04-24T10:47:26;95345.84;;;19.60;57.33
77889;BME280;67082;41.704;44.768;2023-04-24T10:49:58;95348.47;;;19.53;57.42
77889;BME280;67082;41.704;44.768;2023-04-24T10:52:48;95341.28;;;19.57;57.99
77889;BME280;67082;41.704;44.768;2023-04-24T10:55:41;95339.19;;;19.63;57.63
77889;BME280;67082;41.704;44.768;2023-04-24T10:58:11;95334.59;;;19.60;56.04
77889;BME280;67082;41.704;44.768;2023-04-24T11:00:40;95337.13;;;19.64;57.35
77889;BME280;67082;41.704;44.768;2023-04-24T11:03:29;95330.03;;;19.57;56.49
77889;BME280;67082;41.704;44.768;2023-04-24T11:08:44;95326.91;;;19.66;57.11
77889;BME280;67082;41.704;44.768;2023-04-24T11:11:15;95327.69;;;19.67;57.29
77889;BME280;67082;41.704;44.768;2023-04-24T11:22:12;95315.44;;;19.64;57.76
77889;BME280;67082;41.704;44.768;2023-04-24T11:27:20;95316.06;;;19.41;60.29
77889;BME280;67082;41.704;44.768;2023-04-24T11:30:02;95314.84;;;19.25;60.46
77889;BME280;67082;41.704;44.768;2023-04-24T11:32:36;95303.38;;;19.23;63.68
77889;BME280;67082;41.704;44.768;2023-04-24T11:37:39;95301.13;;;19.05;67.15
77889;BME280;67082;41.704;44.768;2023-04-24T11:40:10;95286.16;;;18.86;65.93
77889;BME280;67082;41.704;44.768;2023-04-24T11:42:44;95282.81;;;18.93;66.87
77889;BME280;67082;41.704;44.768;2023-04-24T11:45:16;95290.00;;;18.72;64.66
77889;BME280;67082;41.704;44.768;2023-04-24T11:47:45;95284.66;;;18.69;64.71
77889;BME280;67082;41.704;44.768;2023-04-24T11:50:15;95293.06;;;18.74;68.79
77889;BME280;67082;41.704;44.768;2023-04-24T11:52:48;95293.31;;;18.76;68.74
77889;BME280;67082;41.704;44.768;2023-04-24T11:57:53;95294.09;;;18.66;70.55
77889;BME280;67082;41.704;44.768;2023-04-24T12:00:29;95296.69;;;18.58;70.88
77889;BME280;67082;41.704;44.768;2023-04-24T12:03:24;95290.56;;;18.54;69.25
77889;BME280;67082;41.704;44.768;2023-04-24T12:06:08;95298.72;;;18.63;68.47
77889;BME280;67082;41.704;44.768;2023-04-24T12:08:37;95303.31;;;18.55;68.49
77889;BME280;67082;41.704;44.768;2023-04-24T12:11:07;95306.88;;;18.50;66.17
77889;BME280;67082;41.704;44.768;2023-04-24T12:13:35;95300.81;;;18.35;65.79
77889;BME280;67082;41.704;44.768;2023-04-24T12:16:04;95306.66;;;18.48;69.16
77889;BME280;67082;41.704;44.768;2023-04-24T12:18:34;95301.28;;;18.39;66.99
77889;BME280;67082;41.704;44.768;2023-04-24T12:21:16;95310.72;;;18.42;67.22
77889;BME280;67082;41.704;44.768;2023-04-24T12:23:48;95312.00;;;18.46;67.00
77889;BME280;67082;41.704;44.768;2023-04-24T12:26:20;95315.84;;;18.38;67.67
77889;BME280;67082;41.704;44.768;2023-04-24T12:28:49;95322.44;;;18.07;66.91
77889;BME280;67082;41.704;44.768;2023-04-24T12:31:20;95314.78;;;17.97;67.18
77889;BME280;67082;41.704;44.768;2023-04-24T12:33:48;95319.91;;;17.93;67.47
77889;BME280;67082;41.704;44.768;2023-04-24T12:36:17;95322.94;;;17.84;66.87
77889;BME280;67082;41.704;44.768;2023-04-24T12:38:45;95321.66;;;17.85;66.82
77889;BME280;67082;41.704;44.768;2023-04-24T12:41:14;95330.09;;;17.96;67.53
77889;BME280;67082;41.704;44.768;2023-04-24T12:43:52;95336.72;;;17.98;68.00
77889;BME280;67082;41.704;44.768;2023-04-24T12:46:21;95338.75;;;17.98;69.41
77889;BME280;67082;41.704;44.768;2023-04-24T12:48:50;95343.09;;;18.04;69.05
77889;BME280;67082;41.704;44.768;2023-04-24T12:51:19;95341.56;;;18.03;69.09
77889;BME280;67082;41.704;44.768;2023-04-24T12:53:47;95340.56;;;18.06;69.79
77889;BME280;67082;41.704;44.768;2023-04-24T12:56:15;95334.16;;;18.06;69.28
77889;BME280;67082;41.704;44.768;2023-04-24T12:58:44;95348.44;;;18.02;69.89
77889;BME280;67082;41.704;44.768;2023-04-24T13:01:13;95340.53;;;18.01;68.04
77889;BME280;67082;41.704;44.768;2023-04-24T13:03:42;95346.91;;;17.90;68.42
77889;BME280;67082;41.704;44.768;2023-04-24T13:06:12;95347.13;;;17.81;67.65
77889;BME280;67082;41.704;44.768;2023-04-24T13:08:40;95336.91;;;17.56;69.22
77889;BME280;67082;41.704;44.768;2023-04-24T13:11:11;95324.16;;;17.55;67.36
77889;BME280;67082;41.704;44.768;2023-04-24T13:13:39;95341.13;;;17.30;68.22
77889;BME280;67082;41.704;44.768;2023-04-24T13:16:08;95345.66;;;17.22;68.86
77889;BME280;67082;41.704;44.768;2023-04-24T13:18:36;95337.75;;;17.09;69.57
77889;BME280;67082;41.704;44.768;2023-04-24T13:21:04;95340.50;;;17.04;70.80
77889;BME280;67082;41.704;44.768;2023-04-24T13:23:32;95340.59;;;17.20;70.38
77889;BME280;67082;41.704;44.768;2023-04-24T13:26:01;95332.19;;;17.20;71.62
77889;BME280;67082;41.704;44.768;2023-04-24T13:28:29;95334.00;;;17.29;72.21
77889;BME280;67082;41.704;44.768;2023-04-24T13:30:58;95330.88;;;17.16;72.00